Time;durP1;ratioP1;P1;durP2;ratioP2;P2;SDS_P1;SDS_P2;PMS_P1;PMS_P2;Temp;Humidity;BMP_temperature;BMP_pressure;BME280_temperature;BME280_humidity;BME280_pressure;Samples;Min_cycle;Max_cycle;Signal;HPM_P1;HPM_P2
2022/05/24 00:00:39;;;;;;;;;;;;;;;28.85;40.50;93349.88;5038654;28;7273;-60
2022/05/24 00:03:06;;;;;;;;;;;;;;;28.86;40.33;93346.53;5051473;28;8267;-60
2022/05/24 00:05:35;;;;;;;;;;;;;;;28.87;40.48;93347.28;5039584;28;9060;-61
2022/05/24 00:08:03;;;;;;;;;;;;;;;28.87;40.29;93350.81;5060726;28;7521;-61
2022/05/24 00:10:31;;;;;;;;;;;;;;;28.85;40.72;93361.69;5041940;28;7597;-60
2022/05/24 00:12:58;;;;;;;;;;;;;;;28.83;40.03;93358.75;5049033;28;9108;-60
2022/05/24 00:15:30;;;;;;;;;;;;;;;28.85;39.81;93356.16;5046808;28;6848;-60
2022/05/24 00:17:56;;;;;;;;;;;;;;;28.86;40.14;93362.44;5051801;28;9054;-60
2022/05/24 00:20:32;;;;;;;;;;;;;;;28.82;40.42;93354.50;5040957;28;7946;-60
2022/05/24 00:23:01;;;;;;;;;;;;;;;28.85;40.30;93361.69;5037080;28;7209;-60
2022/05/24 00:25:28;;;;;;;;;;;;;;;28.84;40.08;93354.69;5050694;28;7042;-60
2022/05/24 00:27:58;;;;;;;;;;;;;;;28.84;40.60;93360.22;5046635;28;7167;-60
2022/05/24 00:30:36;;;;;;;;;;;;;;;28.85;40.28;93360.94;5048381;28;7829;-60
2022/05/24 00:33:03;;;;;;;;;;;;;;;28.85;40.24;93363.72;5054068;28;7039;-60
2022/05/24 00:35:34;;;;;;;;;;;;;;;28.83;40.88;93353.22;5062444;28;6975;-60
2022/05/24 00:38:01;;;;;;;;;;;;;;;28.84;40.33;93357.44;5035557;28;7182;-60
2022/05/24 00:40:35;;;;;;;;;;;;;;;28.83;40.53;93369.81;5059736;28;7260;-60
2022/05/24 00:43:09;;;;;;;;;;;;;;;28.83;40.46;93364.28;5034996;28;7604;-60
2022/05/24 00:45:51;;;;;;;;;;;;;;;28.83;40.27;93355.25;5035384;28;7255;-60
2022/05/24 00:48:39;;;;;;;;;;;;;;;28.82;40.42;93343.44;5046665;28;7205;-60
2022/05/24 00:51:13;;;;;;;;;;;;;;;28.78;40.26;93339.56;5057091;28;7316;-61
2022/05/24 00:53:52;;;;;;;;;;;;;;;28.74;40.24;93342.72;5055533;28;9420;-61
2022/05/24 00:56:41;;;;;;;;;;;;;;;28.73;40.47;93340.50;5049084;28;7945;-61
2022/05/24 00:59:14;;;;;;;;;;;;;;;28.74;40.51;93334.41;5006660;28;7619;-60
2022/05/24 01:02:13;;;;;;;;;;;;;;;28.74;40.24;93328.88;5007017;28;9081;-60
2022/05/24 01:04:41;;;;;;;;;;;;;;;28.77;40.47;93338.84;4972384;28;7274;-61
2022/05/24 01:07:12;;;;;;;;;;;;;;;28.77;40.42;93338.84;4949320;28;7522;-61
2022/05/24 01:09:56;;;;;;;;;;;;;;;28.77;40.43;93338.84;4950375;28;8763;-61
2022/05/24 01:12:38;;;;;;;;;;;;;;;28.76;40.14;93334.59;4951792;28;9474;-61
2022/05/24 01:15:22;;;;;;;;;;;;;;;28.75;40.20;93340.69;4952850;28;6856;-61
2022/05/24 01:17:51;;;;;;;;;;;;;;;28.76;40.49;93337.34;4950277;28;9424;-61
2022/05/24 01:20:18;;;;;;;;;;;;;;;28.74;40.18;93331.66;4952942;28;9179;-61
2022/05/24 01:23:40;;;;;;;;;;;;;;;28.74;40.34;93339.94;4954283;28;8681;-61
2022/05/24 01:26:20;;;;;;;;;;;;;;;28.72;40.09;93328.69;4954659;28;8682;-61
2022/05/24 01:29:23;;;;;;;;;;;;;;;28.69;40.22;93326.28;4936518;28;8699;-61
2022/05/24 01:37:34;;;;;;;;;;;;;;;28.64;40.50;93328.00;4995454;28;8862;-61
2022/05/24 01:40:04;;;;;;;;;;;;;;;28.62;40.08;93322.28;4996003;28;7147;-60
2022/05/24 01:42:33;;;;;;;;;;;;;;;28.61;40.54;93320.78;5060955;28;6972;-61
2022/05/24 01:45:14;;;;;;;;;;;;;;;28.60;40.82;93324.84;5067218;28;6983;-60
2022/05/24 01:47:44;;;;;;;;;;;;;;;28.58;40.34;93326.72;5043028;28;7008;-59
2022/05/24 01:50:15;;;;;;;;;;;;;;;28.59;40.23;93317.09;5048155;28;7275;-60
2022/05/24 01:52:56;;;;;;;;;;;;;;;28.59;40.42;93323.38;5047998;28;7253;-60
2022/05/24 01:55:34;;;;;;;;;;;;;;;28.59;40.48;93320.63;5051137;28;9201;-60
2022/05/24 01:58:08;;;;;;;;;;;;;;;28.58;40.56;93316.34;5053616;28;7281;-59
2022/05/24 02:00:53;;;;;;;;;;;;;;;28.56;40.59;93313.38;5063205;28;9284;-59
2022/05/24 02:03:21;;;;;;;;;;;;;;;28.57;40.59;93308.59;5049583;28;8792;-59
2022/05/24 02:05:47;;;;;;;;;;;;;;;28.57;40.64;93316.91;5036056;28;7047;-60
2022/05/24 02:08:21;;;;;;;;;;;;;;;28.56;40.85;93324.44;5039155;28;9046;-60
2022/05/24 02:10:59;;;;;;;;;;;;;;;28.55;40.10;93323.00;5064540;28;7263;-59
2022/05/24 02:13:39;;;;;;;;;;;;;;;28.56;40.51;93313.38;5047612;28;8566;-60
2022/05/24 02:16:12;;;;;;;;;;;;;;;28.56;40.65;93315.44;5051419;28;9714;-60
2022/05/24 02:18:43;;;;;;;;;;;;;;;28.55;40.61;93314.69;5043605;28;9454;-60
2022/05/24 02:21:09;;;;;;;;;;;;;;;28.53;40.47;93311.00;5055079;28;7022;-60
2022/05/24 02:23:48;;;;;;;;;;;;;;;28.53;40.39;93308.25;5039361;28;7193;-60
2022/05/24 02:26:21;;;;;;;;;;;;;;;28.47;40.87;93304.94;5055037;28;7334;-60
2022/05/24 02:29:01;;;;;;;;;;;;;;;28.51;40.84;93314.34;5054514;28;8734;-60
2022/05/24 02:31:35;;;;;;;;;;;;;;;28.51;40.78;93314.34;5043437;28;8863;-60
2022/05/24 02:34:01;;;;;;;;;;;;;;;28.50;40.54;93315.63;5035114;28;7233;-60
2022/05/24 02:36:32;;;;;;;;;;;;;;;28.50;40.50;93307.31;5049981;28;6911;-60
2022/05/24 02:39:04;;;;;;;;;;;;;;;28.49;40.67;93311.38;5050762;28;8941;-60
2022/05/24 02:41:31;;;;;;;;;;;;;;;28.49;40.27;93314.16;5034288;28;9070;-60
2022/05/24 02:44:00;;;;;;;;;;;;;;;28.48;40.28;93315.44;5042058;28;7147;-60
2022/05/24 02:46:28;;;;;;;;;;;;;;;28.49;40.63;93313.41;5035970;28;7187;-60
2022/05/24 02:48:56;;;;;;;;;;;;;;;28.47;40.34;93311.19;5030265;28;7154;-60
2022/05/24 02:51:23;;;;;;;;;;;;;;;28.49;40.66;93310.66;5031891;28;8530;-60
2022/05/24 02:53:50;;;;;;;;;;;;;;;28.49;40.49;93314.16;5053217;28;7293;-60
2022/05/24 02:56:16;;;;;;;;;;;;;;;28.48;40.33;93312.66;5062503;28;9108;-60
2022/05/24 02:58:47;;;;;;;;;;;;;;;28.48;40.90;93309.91;5044682;28;7238;-59
2022/05/24 03:01:23;;;;;;;;;;;;;;;28.48;40.41;93315.44;5051037;28;9814;-59
2022/05/24 03:03:51;;;;;;;;;;;;;;;28.46;40.41;93315.25;5042923;28;7246;-59
2022/05/24 03:06:27;;;;;;;;;;;;;;;28.46;40.29;93318.03;5049744;28;8740;-59
2022/05/24 03:14:28;;;;;;;;;;;;;;;28.44;40.50;93328.91;5050644;28;9284;-60
2022/05/24 03:16:54;;;;;;;;;;;;;;;28.44;40.90;93328.91;5048297;28;8744;-60
2022/05/24 03:19:21;;;;;;;;;;;;;;;28.43;40.66;93326.69;5061184;28;7246;-59
2022/05/24 03:21:50;;;;;;;;;;;;;;;28.41;40.41;93330.00;5050097;28;8095;-60
2022/05/24 03:24:19;;;;;;;;;;;;;;;28.41;40.39;93332.78;5033443;28;7013;-60
2022/05/24 03:26:45;;;;;;;;;;;;;;;28.38;40.76;93336.66;5062042;28;8743;-60
2022/05/24 03:29:16;;;;;;;;;;;;;;;28.39;40.83;93332.59;5049881;28;8691;-60
2022/05/24 03:31:42;;;;;;;;;;;;;;;28.37;40.50;93335.19;5043705;28;7096;-60
2022/05/24 03:34:18;;;;;;;;;;;;;;;28.38;40.69;93336.66;5041989;28;6959;-60
2022/05/24 03:36:47;;;;;;;;;;;;;;;28.37;40.55;93343.47;5046011;28;7082;-60
2022/05/24 03:39:19;;;;;;;;;;;;;;;28.38;39.89;93344.97;5049893;28;8836;-60
2022/05/24 03:41:46;;;;;;;;;;;;;;;28.37;40.09;93346.25;5061539;28;8990;-60
2022/05/24 03:44:19;;;;;;;;;;;;;;;28.38;40.47;93348.44;5051215;28;7067;-60
2022/05/24 03:46:51;;;;;;;;;;;;;;;28.39;40.06;93346.41;5044518;28;9060;-60
2022/05/24 03:49:19;;;;;;;;;;;;;;;28.38;40.43;93342.91;5053603;28;6980;-60
2022/05/24 03:51:47;;;;;;;;;;;;;;;28.39;40.47;93360.25;5046264;28;9137;-59
2022/05/24 03:54:13;;;;;;;;;;;;;;;28.38;40.19;93352.50;5052068;28;7305;-59
2022/05/24 03:57:59;;;;;;;;;;;;;;;28.40;40.52;93355.47;5039303;28;7311;-58
2022/05/24 03:59:28;;;;;;;;;;;;;;;28.38;40.62;93347.72;5053849;28;7467;-60
2022/05/24 04:01:53;;;;;;;;;;;;;;;28.38;40.50;93347.72;5045623;28;9407;-60
2022/05/24 04:04:25;;;;;;;;;;;;;;;28.38;40.83;93344.97;5038373;28;8858;-60
2022/05/24 04:06:51;;;;;;;;;;;;;;;28.36;40.29;93350.31;5032050;28;9456;-60
2022/05/24 04:09:17;;;;;;;;;;;;;;;28.35;40.16;93355.09;5057187;28;6906;-60
2022/05/24 04:11:45;;;;;;;;;;;;;;;28.36;40.33;93361.38;5050042;28;7238;-60
2022/05/24 04:14:12;;;;;;;;;;;;;;;28.35;40.51;93359.88;5052942;28;7821;-60
2022/05/24 04:16:40;;;;;;;;;;;;;;;28.34;40.39;93359.13;5030762;28;7393;-59
2022/05/24 04:19:06;;;;;;;;;;;;;;;28.33;40.81;93357.69;5038890;28;7376;-60
2022/05/24 04:21:41;;;;;;;;;;;;;;;28.33;40.28;93354.91;5048109;28;7042;-61
2022/05/24 04:24:10;;;;;;;;;;;;;;;28.33;40.38;93354.16;5052892;28;7344;-61
2022/05/24 04:26:39;;;;;;;;;;;;;;;28.32;40.39;93360.97;5051083;28;7210;-61
2022/05/24 04:29:06;;;;;;;;;;;;;;;28.32;40.31;93374.81;5058606;28;7054;-61
2022/05/24 04:31:33;;;;;;;;;;;;;;;28.32;40.31;93385.88;5053163;28;9067;-61
2022/05/24 04:33:59;;;;;;;;;;;;;;;28.30;40.52;93385.69;5064755;28;7287;-60
2022/05/24 04:36:25;;;;;;;;;;;;;;;28.31;40.54;93384.41;5052151;28;8656;-60
2022/05/24 04:38:58;;;;;;;;;;;;;;;28.30;40.45;93389.19;5049020;28;7027;-60
2022/05/24 04:44:21;;;;;;;;;;;;;;;28.23;41.18;93403.03;5053626;28;7311;-60
2022/05/24 04:49:50;;;;;;;;;;;;;;;28.25;40.83;93403.94;5059585;28;7625;-59
2022/05/24 04:52:23;;;;;;;;;;;;;;;28.25;40.45;93417.03;5048764;28;9035;-59
2022/05/24 04:54:53;;;;;;;;;;;;;;;28.25;40.80;93417.03;5051343;28;7062;-60
2022/05/24 04:57:27;;;;;;;;;;;;;;;28.23;40.70;93417.56;5031479;28;6928;-59
2022/05/24 04:59:54;;;;;;;;;;;;;;;28.21;40.60;93419.41;5046523;28;8845;-61
2022/05/24 05:02:22;;;;;;;;;;;;;;;28.21;40.60;93422.19;5057373;28;9446;-59
2022/05/24 05:04:49;;;;;;;;;;;;;;;28.22;40.46;93435.47;5068855;28;7308;-59
2022/05/24 05:07:19;;;;;;;;;;;;;;;28.23;40.47;93430.69;5052253;28;9394;-60
2022/05/24 05:09:53;;;;;;;;;;;;;;;28.25;40.57;93419.81;5055678;28;8651;-61
2022/05/24 05:12:30;;;;;;;;;;;;;;;28.25;40.41;93415.00;5060552;28;7186;-60
2022/05/24 05:14:57;;;;;;;;;;;;;;;28.25;40.54;93395.63;5050882;28;7675;-61
2022/05/24 05:17:23;;;;;;;;;;;;;;;28.27;40.36;93406.16;5039922;28;9759;-60
2022/05/24 05:19:49;;;;;;;;;;;;;;;28.27;40.44;93423.47;5062521;28;9649;-60
2022/05/24 05:22:16;;;;;;;;;;;;;;;28.27;40.83;93431.06;5042636;28;8986;-59
2022/05/24 05:24:43;;;;;;;;;;;;;;;28.25;40.40;93433.63;5041885;28;7163;-60
2022/05/24 05:27:44;;;;;;;;;;;;;;;28.21;40.76;93433.25;5047742;28;7923;-61
2022/05/24 05:33:15;;;;;;;;;;;;;;;28.18;40.67;93437.88;4987098;28;9091;-60
2022/05/24 05:35:46;;;;;;;;;;;;;;;28.18;40.47;93442.66;4981093;28;7308;-60
2022/05/24 05:38:15;;;;;;;;;;;;;;;28.19;40.26;93441.34;4976172;28;7112;-60
2022/05/24 05:40:43;;;;;;;;;;;;;;;28.18;40.43;93440.63;4985455;28;7635;-59
2022/05/24 05:43:10;;;;;;;;;;;;;;;28.21;40.36;93444.28;4977069;28;9169;-60
2022/05/24 05:45:58;;;;;;;;;;;;;;;28.23;40.49;93448.00;4982931;28;7115;-60
2022/05/24 05:48:26;;;;;;;;;;;;;;;28.21;40.02;93447.06;4979385;28;8796;-60
2022/05/24 05:50:52;;;;;;;;;;;;;;;28.20;40.21;93451.88;4980002;28;8067;-59
2022/05/24 05:53:27;;;;;;;;;;;;;;;28.21;40.18;93449.81;4968978;28;7223;-60
2022/05/24 05:55:55;;;;;;;;;;;;;;;28.20;40.35;93449.13;4988496;28;7425;-59
2022/05/24 05:58:22;;;;;;;;;;;;;;;28.21;40.58;93447.81;4988462;28;9094;-60
2022/05/24 06:00:48;;;;;;;;;;;;;;;28.24;40.02;93448.75;4950321;28;7135;-59
2022/05/24 06:03:17;;;;;;;;;;;;;;;28.25;40.33;93450.22;4982951;28;9116;-59
2022/05/24 06:05:44;;;;;;;;;;;;;;;28.24;40.24;93448.75;5057684;28;7695;-60
2022/05/24 06:08:10;;;;;;;;;;;;;;;28.25;39.83;93455.75;5056144;28;7082;-61
2022/05/24 06:10:37;;;;;;;;;;;;;;;28.26;40.29;93477.31;5035155;28;7038;-61
2022/05/24 06:13:06;;;;;;;;;;;;;;;28.24;40.01;93476.38;5053894;28;8914;-60
2022/05/24 06:15:37;;;;;;;;;;;;;;;28.24;40.05;93476.38;5046137;28;9493;-59
2022/05/24 06:18:06;;;;;;;;;;;;;;;28.21;40.03;93485.78;5047407;28;9607;-59
2022/05/24 06:20:32;;;;;;;;;;;;;;;28.18;40.06;93493.16;5050667;28;7206;-59
2022/05/24 06:23:08;;;;;;;;;;;;;;;28.20;39.69;93481.53;5051896;28;7001;-60
2022/05/24 06:25:42;;;;;;;;;;;;;;;28.19;39.96;93480.06;5061785;28;7362;-60
2022/05/24 06:28:13;;;;;;;;;;;;;;;28.16;40.13;93483.94;5059346;28;6975;-59
2022/05/24 06:30:48;;;;;;;;;;;;;;;28.15;40.13;93483.19;5046914;28;6936;-60
2022/05/24 06:33:46;;;;;;;;;;;;;;;28.15;39.98;93485.22;5052218;28;6996;-59
2022/05/24 06:36:12;;;;;;;;;;;;;;;28.13;39.86;93480.25;4987317;28;7496;-60
2022/05/24 06:38:38;;;;;;;;;;;;;;;28.15;40.20;93479.69;5004114;28;8081;-60
2022/05/24 06:41:05;;;;;;;;;;;;;;;28.14;40.25;93484.47;5007680;28;7260;-59
2022/05/24 06:43:32;;;;;;;;;;;;;;;28.13;40.10;93479.50;5002970;28;7403;-61
2022/05/24 06:45:59;;;;;;;;;;;;;;;28.13;40.70;93496.81;5003968;28;9093;-60
2022/05/24 06:48:50;;;;;;;;;;;;;;;28.15;40.77;93490.75;5005081;28;9401;-60
2022/05/24 06:51:25;;;;;;;;;;;;;;;28.16;40.24;93486.69;5007487;28;8740;-60
2022/05/24 06:53:53;;;;;;;;;;;;;;;28.16;40.61;93486.69;4993448;28;7287;-60
2022/05/24 06:56:19;;;;;;;;;;;;;;;28.16;40.65;93492.22;5005297;28;9608;-59
2022/05/24 06:58:46;;;;;;;;;;;;;;;28.15;40.48;93493.50;5000512;28;8767;-60
2022/05/24 07:04:24;;;;;;;;;;;;;;;28.15;40.70;93499.03;5006504;28;7266;-60
2022/05/24 07:07:02;;;;;;;;;;;;;;;28.17;41.01;93507.53;5005060;28;9187;-60
2022/05/24 07:09:40;;;;;;;;;;;;;;;28.14;40.98;93506.59;5006169;28;7634;-60
2022/05/24 07:12:07;;;;;;;;;;;;;;;28.15;41.01;93512.88;5012882;28;9147;-60
2022/05/24 07:14:35;;;;;;;;;;;;;;;28.16;41.14;93515.09;5038021;28;9062;-59
2022/05/24 07:17:02;;;;;;;;;;;;;;;28.14;41.16;93511.41;5056706;28;8806;-59
2022/05/24 07:19:28;;;;;;;;;;;;;;;28.13;40.95;93516.19;5042124;28;7462;-59
2022/05/24 07:21:56;;;;;;;;;;;;;;;28.13;40.85;93534.78;5056639;28;7516;-60
2022/05/24 07:24:22;;;;;;;;;;;;;;;28.13;40.98;93523.72;5038258;28;7229;-60
2022/05/24 07:26:48;;;;;;;;;;;;;;;28.11;41.20;93546.41;5039826;28;7269;-60
2022/05/24 07:29:14;;;;;;;;;;;;;;;28.11;41.32;93551.94;5039857;28;7165;-60
2022/05/24 07:31:41;;;;;;;;;;;;;;;28.10;41.44;93549.72;5043752;28;8758;-60
2022/05/24 07:34:07;;;;;;;;;;;;;;;28.11;42.05;93565.75;5049820;28;8993;-59
2022/05/24 07:36:33;;;;;;;;;;;;;;;28.10;41.43;93575.31;5056229;28;7393;-60
2022/05/24 07:39:01;;;;;;;;;;;;;;;28.10;41.31;93580.13;5036827;28;9062;-60
2022/05/24 07:46:56;;;;;;;;;;;;;;;28.08;41.48;93594.50;5052092;28;9362;-59
2022/05/24 07:49:22;;;;;;;;;;;;;;;28.09;41.28;93611.81;5052130;28;7190;-59
2022/05/24 07:51:49;;;;;;;;;;;;;;;28.10;41.64;93621.59;5044657;28;9117;-60
2022/05/24 07:54:15;;;;;;;;;;;;;;;28.09;41.40;93631.94;5050302;28;7208;-59
2022/05/24 07:56:42;;;;;;;;;;;;;;;28.08;41.72;93635.22;5041241;28;7240;-59
2022/05/24 07:59:08;;;;;;;;;;;;;;;28.09;41.64;93631.19;5035064;28;7242;-60
2022/05/24 08:01:36;;;;;;;;;;;;;;;28.09;41.33;93639.47;5052417;28;9024;-60
2022/05/24 08:04:03;;;;;;;;;;;;;;;28.08;41.86;93640.75;5055439;28;9034;-60
2022/05/24 08:06:35;;;;;;;;;;;;;;;28.07;42.15;93634.50;5048942;28;8730;-60
2022/05/24 08:09:03;;;;;;;;;;;;;;;28.07;42.04;93648.31;5055225;28;7526;-60
2022/05/24 08:11:32;;;;;;;;;;;;;;;28.08;41.59;93657.31;5061048;28;8680;-60
2022/05/24 08:14:06;;;;;;;;;;;;;;;28.08;41.80;93655.31;5056356;28;7335;-60
2022/05/24 08:16:35;;;;;;;;;;;;;;;28.06;41.50;93654.38;5015252;28;8479;-60
2022/05/24 08:19:02;;;;;;;;;;;;;;;28.06;41.95;93660.66;5054453;28;9774;-60
2022/05/24 08:21:29;;;;;;;;;;;;;;;28.07;41.75;93658.63;5045629;28;7891;-60
2022/05/24 08:23:56;;;;;;;;;;;;;;;28.05;41.52;93663.97;5058025;28;7085;-60
2022/05/24 08:26:21;;;;;;;;;;;;;;;28.06;41.66;93665.44;5043646;28;9230;-60
2022/05/24 08:28:47;;;;;;;;;;;;;;;28.07;41.61;93666.94;5057112;28;8743;-60
2022/05/24 08:31:25;;;;;;;;;;;;;;;28.06;42.03;93682.03;5043627;28;7000;-60
2022/05/24 08:33:54;;;;;;;;;;;;;;;28.05;41.09;93675.03;5046116;28;7274;-59
2022/05/24 08:36:23;;;;;;;;;;;;;;;28.05;41.65;93678.53;5059583;28;7459;-60
2022/05/24 08:38:49;;;;;;;;;;;;;;;28.07;41.79;93675.22;5042503;28;7278;-61
2022/05/24 08:41:26;;;;;;;;;;;;;;;28.06;41.54;93673.72;5037963;28;8696;-60
2022/05/24 08:48:22;;;;;;;;;;;;;;;28.04;41.37;93674.28;5035581;28;9093;-60
2022/05/24 08:49:38;;;;;;;;;;;;;;;28.02;41.12;93682.38;5056685;28;9062;-61
2022/05/24 08:52:09;;;;;;;;;;;;;;;28.00;40.93;93679.41;5051202;28;8814;-60
2022/05/24 08:54:40;;;;;;;;;;;;;;;28.01;41.03;93680.16;5047318;28;7454;-60
2022/05/24 08:57:50;;;;;;;;;;;;;;;28.02;41.28;93679.63;5048708;28;7396;-60
2022/05/24 09:00:30;;;;;;;;;;;;;;;27.99;40.92;93694.50;5047636;28;8327;-60
2022/05/24 09:03:05;;;;;;;;;;;;;;;27.98;40.93;93697.81;5045532;28;7669;-60
2022/05/24 09:05:34;;;;;;;;;;;;;;;27.98;40.85;93693.03;5046949;28;8742;-60
2022/05/24 09:08:38;;;;;;;;;;;;;;;27.98;40.79;93695.06;5041985;28;9205;-60
2022/05/24 09:11:33;;;;;;;;;;;;;;;27.99;40.77;93704.84;4980841;28;7167;-60
2022/05/24 09:14:12;;;;;;;;;;;;;;;27.96;40.79;93706.63;4962273;28;7238;-59
2022/05/24 09:16:57;;;;;;;;;;;;;;;27.97;40.39;93701.84;4983172;28;7071;-60
2022/05/24 09:19:27;;;;;;;;;;;;;;;27.96;40.59;93708.66;4995369;28;7172;-59
2022/05/24 09:21:54;;;;;;;;;;;;;;;27.94;40.58;93711.22;4982844;28;7091;-60
2022/05/24 09:24:27;;;;;;;;;;;;;;;27.94;40.06;93711.22;4973014;28;7238;-60
2022/05/24 09:27:15;;;;;;;;;;;;;;;27.93;40.29;93710.47;4985964;28;7255;-60
2022/05/24 09:30:22;;;;;;;;;;;;;;;27.93;40.42;93709.72;4989298;28;7274;-60
2022/05/24 09:32:49;;;;;;;;;;;;;;;27.90;40.40;93713.59;4914221;29;9548;-59
2022/05/24 09:35:27;;;;;;;;;;;;;;;27.89;40.41;93725.94;4928552;29;9481;-59
2022/05/24 09:38:08;;;;;;;;;;;;;;;27.88;40.38;93718.94;4931441;29;9300;-61
2022/05/24 09:40:57;;;;;;;;;;;;;;;27.90;40.12;93725.41;4925081;29;8786;-59
2022/05/24 09:43:34;;;;;;;;;;;;;;;27.91;40.08;93726.13;4927667;29;7087;-59
2022/05/24 09:46:06;;;;;;;;;;;;;;;27.90;40.13;93728.16;4925871;28;7250;-60
2022/05/24 09:48:39;;;;;;;;;;;;;;;27.90;40.16;93730.19;4984022;28;9451;-60
2022/05/24 09:51:12;;;;;;;;;;;;;;;27.89;40.50;93729.44;4967897;28;6855;-60
2022/05/24 09:53:53;;;;;;;;;;;;;;;27.88;39.94;93725.19;4960148;28;7308;-60
2022/05/24 09:56:30;;;;;;;;;;;;;;;27.87;40.03;93723.72;4958154;28;9046;-60
2022/05/24 09:59:26;;;;;;;;;;;;;;;27.87;39.93;93734.00;4970826;28;9144;-60
2022/05/24 10:01:56;;;;;;;;;;;;;;;27.87;39.58;93728.50;4974496;28;7568;-60
2022/05/24 10:04:36;;;;;;;;;;;;;;;27.86;40.42;93727.75;4965132;28;6973;-60
2022/05/24 10:07:32;;;;;;;;;;;;;;;27.89;39.82;93728.69;4973081;28;7860;-60
2022/05/24 10:10:19;;;;;;;;;;;;;;;27.86;40.03;93730.50;5033969;28;9064;-61
2022/05/24 10:13:07;;;;;;;;;;;;;;;27.87;39.93;93734.00;5055548;28;7534;-60
2022/05/24 10:15:49;;;;;;;;;;;;;;;27.87;40.18;93736.78;5047591;28;8660;-59
2022/05/24 10:18:45;;;;;;;;;;;;;;;27.89;40.50;93739.75;5038193;28;6988;-60
2022/05/24 10:21:44;;;;;;;;;;;;;;;27.90;40.08;93744.75;5039933;28;9030;-59
2022/05/24 10:24:34;;;;;;;;;;;;;;;27.89;40.14;93734.22;5053906;28;9111;-60
2022/05/24 10:27:26;;;;;;;;;;;;;;;27.89;40.22;93751.53;5052042;28;9115;-60
2022/05/24 10:29:54;;;;;;;;;;;;;;;27.93;39.96;93751.19;5042323;28;8602;-60
2022/05/24 10:39:39;;;;;;;;;;;;;;;27.91;40.36;93742.69;5055904;28;9009;-60
2022/05/24 10:42:23;;;;;;;;;;;;;;;27.90;40.67;93741.97;5002092;28;8401;-60
2022/05/24 10:45:02;;;;;;;;;;;;;;;27.91;40.31;93737.19;5001319;28;9034;-61
2022/05/24 10:48:01;;;;;;;;;;;;;;;27.92;40.45;93735.91;4986582;28;7152;-60
2022/05/24 10:50:46;;;;;;;;;;;;;;;27.92;40.57;93728.38;5006930;28;7159;-59
2022/05/24 10:53:35;;;;;;;;;;;;;;;27.92;40.38;93724.84;4977770;28;9301;-60
2022/05/24 10:56:19;;;;;;;;;;;;;;;27.94;40.55;93731.31;4997901;28;9097;-60
2022/05/24 10:59:36;;;;;;;;;;;;;;;27.95;40.57;93721.00;5006190;28;7360;-60
2022/05/24 11:02:40;;;;;;;;;;;;;;;27.95;40.65;93715.47;4921371;28;9056;-61
2022/05/24 11:05:14;;;;;;;;;;;;;;;27.97;40.41;93715.69;4934587;28;8833;-60
2022/05/24 11:07:41;;;;;;;;;;;;;;;27.96;40.39;93716.94;4932022;28;7559;-60
2022/05/24 11:10:27;;;;;;;;;;;;;;;27.96;40.29;93712.16;4925201;29;9331;-60
2022/05/24 11:13:12;;;;;;;;;;;;;;;27.97;40.44;93713.66;4914682;28;7004;-60
2022/05/24 11:16:13;;;;;;;;;;;;;;;27.98;40.33;93717.19;4901174;29;8958;-60
2022/05/24 11:18:41;;;;;;;;;;;;;;;27.95;40.17;93721.72;4904699;29;9049;-61
2022/05/24 11:21:21;;;;;;;;;;;;;;;27.94;40.67;93725.03;4908515;29;7324;-61
2022/05/24 11:24:04;;;;;;;;;;;;;;;27.87;40.19;93715.41;4896377;29;9358;-60
2022/05/24 11:26:35;;;;;;;;;;;;;;;27.91;40.42;93728.88;4900973;29;7089;-60
2022/05/24 11:29:41;;;;;;;;;;;;;;;27.89;40.58;93723.91;4895154;29;7260;-60
2022/05/24 11:32:18;;;;;;;;;;;;;;;27.90;40.13;93722.63;4909517;29;7506;-60
2022/05/24 11:35:18;;;;;;;;;;;;;;;27.93;40.56;93723.56;4897520;29;7399;-60
2022/05/24 11:37:50;;;;;;;;;;;;;;;27.92;40.84;93724.84;4902472;29;8841;-60
2022/05/24 11:40:33;;;;;;;;;;;;;;;27.91;40.61;93721.34;4903336;29;9068;-60
2022/05/24 11:43:38;;;;;;;;;;;;;;;27.91;40.98;93717.81;4911290;29;7327;-59
2022/05/24 11:46:33;;;;;;;;;;;;;;;27.91;40.36;93723.34;4857874;29;8775;-60
2022/05/24 11:49:21;;;;;;;;;;;;;;;27.91;40.86;93717.81;4858933;29;6858;-60
2022/05/24 11:51:58;;;;;;;;;;;;;;;27.89;40.61;93717.63;4856370;29;7009;-60
2022/05/24 11:54:24;;;;;;;;;;;;;;;27.90;40.99;93716.34;4847239;29;7268;-60
2022/05/24 11:57:06;;;;;;;;;;;;;;;27.90;40.94;93719.13;4895014;29;9323;-60
2022/05/24 11:59:43;;;;;;;;;;;;;;;27.91;41.12;93717.81;4891647;29;8729;-60
2022/05/24 12:02:25;;;;;;;;;;;;;;;27.89;40.84;93712.09;4888522;29;7237;-60
2022/05/24 12:08:22;;;;;;;;;;;;;;;27.94;40.56;93714.00;4888680;29;7332;-60
2022/05/24 12:10:55;;;;;;;;;;;;;;;27.90;40.46;93714.34;4886062;29;7193;-61
2022/05/24 12:13:51;;;;;;;;;;;;;;;27.91;40.99;93720.59;4916982;28;9488;-60
2022/05/24 12:16:56;;;;;;;;;;;;;;;27.90;41.29;93714.34;4967047;28;7254;-60
2022/05/24 12:19:43;;;;;;;;;;;;;;;27.88;40.32;93722.44;4904851;29;7243;-61
2022/05/24 12:22:11;;;;;;;;;;;;;;;27.90;40.81;93722.63;4914416;28;8842;-59
2022/05/24 12:24:40;;;;;;;;;;;;;;;27.91;40.46;93723.34;4940977;28;7211;-62
2022/05/24 12:27:33;;;;;;;;;;;;;;;27.91;40.66;93715.06;4940033;28;7916;-60
2022/05/24 12:30:31;;;;;;;;;;;;;;;27.92;40.76;93711.03;4940873;28;7179;-60
2022/05/24 12:33:11;;;;;;;;;;;;;;;27.89;40.78;93707.31;4957282;28;9109;-60
2022/05/24 12:35:47;;;;;;;;;;;;;;;27.90;40.73;93706.06;4944489;28;7137;-60
2022/05/24 12:38:25;;;;;;;;;;;;;;;27.90;40.91;93714.34;4961233;28;7432;-60
2022/05/24 12:41:07;;;;;;;;;;;;;;;27.89;40.90;93706.56;4934488;28;7256;-59
2022/05/24 12:43:34;;;;;;;;;;;;;;;27.87;40.76;93700.84;4940185;28;7081;-60
2022/05/24 12:46:02;;;;;;;;;;;;;;;27.88;40.92;93710.63;4945022;28;7153;-60
2022/05/24 12:48:37;;;;;;;;;;;;;;;27.89;40.76;93707.31;4941198;28;7100;-60
2022/05/24 12:51:08;;;;;;;;;;;;;;;27.87;40.87;93712.66;4942858;28;9390;-60
2022/05/24 12:53:37;;;;;;;;;;;;;;;27.88;40.76;93707.88;4948654;28;9286;-60
2022/05/24 12:56:17;;;;;;;;;;;;;;;27.90;40.53;93705.31;4974456;28;7290;-59
2022/05/24 12:58:46;;;;;;;;;;;;;;;27.91;40.71;93704.00;5042666;28;8866;-60
2022/05/24 13:01:26;;;;;;;;;;;;;;;27.92;40.75;93702.75;5055500;28;7028;-60
2022/05/24 13:04:08;;;;;;;;;;;;;;;27.90;41.30;93706.06;5032841;28;9090;-59
2022/05/24 13:06:39;;;;;;;;;;;;;;;27.90;40.99;93713.59;5040591;28;7272;-60
2022/05/24 13:09:17;;;;;;;;;;;;;;;27.87;40.75;93707.13;5035113;28;9448;-61
2022/05/24 13:11:52;;;;;;;;;;;;;;;27.90;40.71;93710.84;5050518;28;9105;-60
2022/05/24 13:14:45;;;;;;;;;;;;;;;27.88;40.72;93705.84;5038149;28;7340;-60
2022/05/24 13:17:18;;;;;;;;;;;;;;;27.88;40.88;93713.41;5033634;28;8729;-60
2022/05/24 13:19:58;;;;;;;;;;;;;;;27.87;40.79;93712.66;5039511;28;9285;-61
2022/05/24 13:22:39;;;;;;;;;;;;;;;27.88;40.68;93716.91;5041763;28;7155;-60
2022/05/24 13:25:12;;;;;;;;;;;;;;;27.88;40.85;93716.91;5041667;28;9263;-59
2022/05/24 13:28:10;;;;;;;;;;;;;;;27.90;40.99;93724.66;5054778;28;9141;-60
2022/05/24 13:33:35;;;;;;;;;;;;;;;27.90;40.90;93727.41;5002030;28;8504;-61
2022/05/24 13:36:23;;;;;;;;;;;;;;;27.88;41.01;93733.50;5002284;28;8674;-60
2022/05/24 13:39:10;;;;;;;;;;;;;;;27.88;40.61;93727.22;4985713;28;8711;-60
2022/05/24 13:41:45;;;;;;;;;;;;;;;27.89;40.86;93728.69;4998439;28;9408;-60
2022/05/24 13:44:23;;;;;;;;;;;;;;;27.90;41.05;93730.19;4997045;28;6856;-59
2022/05/24 13:46:55;;;;;;;;;;;;;;;27.91;40.69;93723.34;4999209;28;7260;-61
2022/05/24 13:49:29;;;;;;;;;;;;;;;27.92;41.03;93727.63;4998767;28;7706;-61
2022/05/24 13:52:15;;;;;;;;;;;;;;;27.91;40.70;93726.13;4999995;28;7045;-60
2022/05/24 13:54:41;;;;;;;;;;;;;;;27.90;40.37;93732.94;4979153;28;7275;-60
2022/05/24 13:57:20;;;;;;;;;;;;;;;27.92;40.41;93722.84;4986938;28;7257;-59
2022/05/24 14:00:06;;;;;;;;;;;;;;;27.94;40.92;93716.75;4995877;28;7306;-60
2022/05/24 14:02:32;;;;;;;;;;;;;;;27.95;40.74;93726.53;4994575;28;7019;-60
2022/05/24 14:05:01;;;;;;;;;;;;;;;27.95;40.68;93710.69;4982011;28;9077;-58
2022/05/24 14:07:31;;;;;;;;;;;;;;;27.94;40.57;93727.81;5034061;28;7168;-60
2022/05/24 14:09:59;;;;;;;;;;;;;;;27.93;41.12;93723.56;5047713;28;7519;-60
2022/05/24 14:12:31;;;;;;;;;;;;;;;27.91;40.54;93724.09;5044266;28;9054;-60
2022/05/24 14:14:58;;;;;;;;;;;;;;;27.91;40.79;93721.34;5057978;28;7212;-61
2022/05/24 14:17:25;;;;;;;;;;;;;;;27.89;40.65;93723.16;5048102;28;7123;-61
2022/05/24 14:19:52;;;;;;;;;;;;;;;27.88;40.55;93732.75;5043871;28;9190;-60
2022/05/24 14:22:24;;;;;;;;;;;;;;;27.89;40.60;93725.94;5050300;28;7701;-60